Yalesville, Connecticut
Current Conditions -  °F | °C
As of 3:53 AM on Monday 24 Nov 2014 (Local Time) from KMMK Reporting Station
Moderate Rain Moderate Rain  
Wind Chill: 41°   Ceiling: 700
Heat Index: 44°   Visibility: 1.2mi
Dew Point: 42°   Wind: 6mph
Humidity: 93%   Direction: 330°NNW
Pressure: 29.88"   Gusts: NA
Location:  41.4596°N, 72.818°W
Report Text: KMMK 240853Z AUTO 33005KT 1 1/4SM RA BR BKN007 OVC012 07/06 A2988 RMK AO2 CIG 004V009 SLP117 P0012 60013 T00670056 58044 TSNO $
Loading
Personal Weather Stations






























Interactive Weather Map New forecast layout! Learn more

10-Day Weather Forecast

Advertisements
Track Severe Weather on mobile